Terminal Aerodrome Forecast
Issued by NWS Paducah, KY

Home | Current Version | Previous Version | Text Only | Print | Product List | Glossary Off
Versions: 1 2 3 4 5 6 7 8 9 10 11 12 13 14

674
FTUS43 KPAH 010520
TAFEVV
TAF
KEVV 010520Z 0106/0206 27006KT P6SM BKN050
      TEMPO 0106/0110 SCT050
     FM011000 26005KT P6SM SCT050
     FM011500 25010KT P6SM SKC
     FM020000 VRB03KT P6SM SKC=

USA.gov is the U.S. government's official web portal to all federal, state and local government web resources and services.